Terminal Aerodrome Forecast
Issued by NWS Pittsburgh, PA

Current Version | Previous Version | Graphics & Text | Print | Product List | Glossary On
Versions: 1 2 3 4 5 6 7 8 9 10 11 12 13 14 15 16 17 18 19 20 21 22 23 24 25 26 27 28 29 30 31 32 33
000
FTUS41 KPBZ 261500 AAA
TAFPIT
TAF AMD
KPIT 261516Z 2615/2718 01004KT 3SM -SN OVC030
     FM261700 02005KT 1SM -SN BR OVC007
     FM262000 35004KT 4SM -SN OVC010
     FM262200 33003KT P6SM OVC010=

USA.gov is the U.S. government's official web portal to all federal, state and local government web resources and services.